createdAt,value
2022-08-30T00:02:00.713Z,0.4
2022-08-30T00:06:13.918Z,0.5
2022-08-30T00:08:19.858Z,0.3
2022-08-30T00:14:41.828Z,0.6
2022-08-30T00:21:00.788Z,0.5
2022-08-30T00:27:19.972Z,0.5
2022-08-30T00:29:29.139Z,0.4
2022-08-30T00:31:35.643Z,0.4
2022-08-30T00:33:41.954Z,0.4
2022-08-30T00:35:48.301Z,0.7
2022-08-30T00:37:54.697Z,0.3
2022-08-30T00:40:01.154Z,0.5
2022-08-30T00:44:16.631Z,0.4
2022-08-30T00:46:23.094Z,0.4
2022-08-30T00:48:29.466Z,0.3
2022-08-30T00:49:34.046Z,0.5
2022-08-30T00:51:40.457Z,0.6
2022-08-30T00:53:46.857Z,0.4
2022-08-30T00:55:53.236Z,0.4
2022-08-30T00:58:02.567Z,0.6
2022-08-30T01:00:08.811Z,0.4
2022-08-30T01:02:15.199Z,0.3
2022-08-30T01:04:21.552Z,0.4
2022-08-30T01:06:32.416Z,0.5
2022-08-30T01:08:34.301Z,0.4
2022-08-30T01:10:40.700Z,0.7
2022-08-30T01:12:49.966Z,0.5
2022-08-30T01:14:56.354Z,0.4
2022-08-30T01:17:02.802Z,0.4
2022-08-30T01:19:09.160Z,0.3
2022-08-30T01:21:15.584Z,0.5
2022-08-30T01:23:21.968Z,0.4
2022-08-30T01:25:28.386Z,0.5
2022-08-30T01:27:37.628Z,0.4
2022-08-30T01:29:44.019Z,0.4
2022-08-30T01:31:50.515Z,0.5
2022-08-30T01:33:57.006Z,0.4
2022-08-30T01:36:03.256Z,0.5
2022-08-30T01:38:09.704Z,0.5
2022-08-30T01:40:16.124Z,0.6
2022-08-30T01:42:25.281Z,0.4
2022-08-30T01:44:31.696Z,0.5
2022-08-30T01:47:42.717Z,0.4
2022-08-30T01:54:01.915Z,0.4
2022-08-30T01:56:11.195Z,0.4
2022-08-30T01:58:17.537Z,0.5
2022-08-30T02:00:23.912Z,0.6
2022-08-30T02:02:30.328Z,0.5
2022-08-30T02:04:36.887Z,0.6
2022-08-30T02:06:43.168Z,0.5
2022-08-30T02:08:49.564Z,0.4
2022-08-30T02:10:58.794Z,0.4
2022-08-30T02:13:05.180Z,0.7
2022-08-30T02:15:11.554Z,0.6
2022-08-30T02:17:17.986Z,0.6
2022-08-30T02:19:24.362Z,0.5
2022-08-30T02:25:46.431Z,0.4
2022-08-30T02:27:52.830Z,0.4
2022-08-30T02:29:59.208Z,0.5
2022-08-30T02:32:05.658Z,0.4
2022-08-30T02:34:12.001Z,0.5
2022-08-30T02:36:19.123Z,0.6
2022-08-30T02:38:24.784Z,0.5
2022-08-30T02:40:34.229Z,0.5
2022-08-30T02:42:40.430Z,0.5
2022-08-30T02:44:46.824Z,0.5
2022-08-30T02:45:51.468Z,0.6
2022-08-30T02:54:19.796Z,0.5
2022-08-30T02:58:32.619Z,0.5
2022-08-30T03:00:38.981Z,0.5
2022-08-30T03:02:45.373Z,0.4
2022-08-30T03:04:51.746Z,0.5
2022-08-30T03:06:58.166Z,0.7
2022-08-30T03:09:07.409Z,0.5
2022-08-30T03:11:13.802Z,0.7
2022-08-30T03:13:20.201Z,0.6
2022-08-30T03:15:26.564Z,0.6
2022-08-30T03:17:32.962Z,0.5
2022-08-30T03:19:39.386Z,0.6
2022-08-30T03:30:14.212Z,0.6
2022-08-30T03:32:20.615Z,0.6
2022-08-30T03:34:27.068Z,0.7
2022-08-30T03:36:33.382Z,0.5
2022-08-30T03:38:42.615Z,0.6
2022-08-30T03:40:49.014Z,0.5
2022-08-30T03:42:55.406Z,0.6
2022-08-30T03:45:21.465Z,0.6
2022-08-30T03:47:27.937Z,0.6
2022-08-30T03:49:34.265Z,0.4
2022-08-30T03:51:43.519Z,0.6
2022-08-30T03:53:49.918Z,0.6
2022-08-30T03:55:57.369Z,0.5
2022-08-30T03:58:02.731Z,0.7
2022-08-30T04:00:09.125Z,0.5
2022-08-30T04:02:15.566Z,0.5
2022-08-30T04:12:50.307Z,0.6
2022-08-30T04:17:03.098Z,0.5
2022-08-30T04:21:18.716Z,0.5
2022-08-30T04:23:25.126Z,0.5
2022-08-30T04:25:31.519Z,0.5
2022-08-30T04:27:37.932Z,0.4
2022-08-30T04:29:45.875Z,0.4
2022-08-30T04:31:52.267Z,0.7
2022-08-30T04:36:07.874Z,0.4
2022-08-30T04:38:14.281Z,0.4
2022-08-30T04:40:20.772Z,0.4
2022-08-30T04:41:25.290Z,0.6
2022-08-30T04:43:31.706Z,0.6
2022-08-30T04:45:38.152Z,0.5
2022-08-30T04:47:44.509Z,0.7
2022-08-30T04:52:00.107Z,0.7
2022-08-30T04:54:06.524Z,0.5
2022-08-30T04:56:12.880Z,0.7
2022-08-30T04:58:19.261Z,0.6
2022-08-30T05:00:25.676Z,0.6
2022-08-30T05:02:32.150Z,0.4
2022-08-30T05:04:41.280Z,0.6
2022-08-30T05:06:47.686Z,0.4
2022-08-30T05:11:00.433Z,0.6
2022-08-30T05:13:06.868Z,0.5
2022-08-30T05:15:13.266Z,0.6
2022-08-30T05:17:19.622Z,0.4
2022-08-30T05:23:41.665Z,0.7
2022-08-30T05:25:48.098Z,0.7
2022-08-30T05:27:54.459Z,0.5
2022-08-30T05:30:00.890Z,0.4
2022-08-30T05:32:07.295Z,0.6
2022-08-30T05:34:16.549Z,0.5
2022-08-30T05:38:29.280Z,0.7
2022-08-30T05:39:44.957Z,0.4
2022-08-30T05:41:40.327Z,0.6
2022-08-30T05:43:46.721Z,0.6
2022-08-30T05:45:53.115Z,0.6
2022-08-30T05:48:02.371Z,0.5
2022-08-30T05:50:08.773Z,0.6
2022-08-30T05:52:15.156Z,0.4
2022-08-30T05:54:21.572Z,0.4
2022-08-30T05:56:27.974Z,0.5
2022-08-30T05:58:34.373Z,0.7
2022-08-30T06:00:40.761Z,0.5
2022-08-30T06:02:50.056Z,0.7
2022-08-30T06:09:09.202Z,0.5
2022-08-30T06:11:15.572Z,0.5
2022-08-30T06:13:21.984Z,0.5
2022-08-30T06:15:28.385Z,0.6
2022-08-30T06:17:37.623Z,0.6
2022-08-30T06:19:44.031Z,0.4
2022-08-30T06:21:50.417Z,0.5
2022-08-30T06:23:56.817Z,0.6
2022-08-30T06:26:03.229Z,0.5
2022-08-30T06:30:16.053Z,0.4
2022-08-30T06:32:25.290Z,0.5
2022-08-30T06:34:31.725Z,0.5
2022-08-30T06:36:38.107Z,0.6
2022-08-30T06:37:42.708Z,0.5
2022-08-30T06:39:49.077Z,0.6
2022-08-30T06:41:55.483Z,0.5
2022-08-30T06:44:01.865Z,0.4
2022-08-30T06:46:11.214Z,0.6
2022-08-30T06:48:17.738Z,0.4
2022-08-30T06:50:23.929Z,0.7
2022-08-30T06:52:30.320Z,0.5
2022-08-30T06:54:36.728Z,0.4
2022-08-30T06:56:57.766Z,0.4
2022-08-30T06:58:49.561Z,0.5
2022-08-30T07:00:58.786Z,0.4
2022-08-30T07:03:05.334Z,0.6
2022-08-30T07:05:13.246Z,0.5
2022-08-30T07:07:17.983Z,0.5
2022-08-30T07:09:24.408Z,0.6
2022-08-30T07:11:30.745Z,0.5
2022-08-30T07:13:37.079Z,0.6
2022-08-30T07:15:46.257Z,0.4
2022-08-30T07:17:52.511Z,0.6
2022-08-30T07:19:58.907Z,0.3
2022-08-30T07:22:05.224Z,0.6
2022-08-30T07:26:18.004Z,0.5
2022-08-30T07:28:24.377Z,0.6
2022-08-30T07:30:33.424Z,0.5
2022-08-30T07:32:39.719Z,0.6
2022-08-30T07:34:45.985Z,0.4
2022-08-30T07:37:06.143Z,0.4
2022-08-30T07:39:12.423Z,0.5
2022-08-30T07:41:18.740Z,0.5
2022-08-30T07:43:27.721Z,0.3
2022-08-30T07:45:34.003Z,0.4
2022-08-30T07:47:40.272Z,0.3
2022-08-30T07:49:46.528Z,0.3
2022-08-30T07:56:05.225Z,0.2
2022-08-30T07:58:14.184Z,0.2
2022-08-30T08:02:26.659Z,0.1
2022-08-30T08:04:32.808Z,0.1
2022-08-30T08:08:45.188Z,0.2
2022-08-30T08:10:51.354Z,0.2
2022-08-30T08:13:00.314Z,0.2
2022-08-30T08:15:08.291Z,0.1
2022-08-30T08:17:12.638Z,0.1
2022-08-30T08:19:18.810Z,0.1
2022-08-30T08:21:24.951Z,0.2
2022-08-30T08:23:31.129Z,0.2
2022-08-30T08:25:37.267Z,0.1
2022-08-30T08:27:46.184Z,0.2
2022-08-30T08:29:52.313Z,0.2
2022-08-30T08:31:58.446Z,0.1
2022-08-30T08:33:02.907Z,0.2
2022-08-30T08:35:09.038Z,0.2
2022-08-30T08:37:15.164Z,0.1
2022-08-30T08:39:21.307Z,0.2
2022-08-30T08:41:30.186Z,0.2
2022-08-30T08:43:36.340Z,0.2
2022-08-30T08:45:42.454Z,0.2
2022-08-30T08:47:48.601Z,0.2
2022-08-30T08:49:54.734Z,0.2
2022-08-30T08:52:00.887Z,0.2
2022-08-30T08:54:07.021Z,0.2
2022-08-30T08:56:16.046Z,0.1
2022-08-30T08:58:22.140Z,0.2
2022-08-30T09:00:28.321Z,0.2
2022-08-30T09:02:34.587Z,0.1
2022-08-30T09:06:46.846Z,0.2
2022-08-30T09:13:08.162Z,0.1
2022-08-30T09:15:14.355Z,0.1
2022-08-30T09:17:20.540Z,0.2
2022-08-30T09:19:26.776Z,0.1
2022-08-30T09:21:32.936Z,0.3
2022-08-30T09:23:39.142Z,0.3
2022-08-30T09:25:48.114Z,0.2
2022-08-30T09:27:54.266Z,0.2
2022-08-30T09:30:00.441Z,0.1
2022-08-30T09:31:07.743Z,0.2
2022-08-30T09:33:11.098Z,0.1
2022-08-30T09:35:17.277Z,0.1
2022-08-30T09:43:44.617Z,0.1
2022-08-30T09:45:50.795Z,0.2
2022-08-30T09:47:56.944Z,0.2
2022-08-30T09:50:03.118Z,0.2
2022-08-30T09:52:09.252Z,0.2
2022-08-30T09:54:18.741Z,0.1
2022-08-30T09:56:24.147Z,0.1
2022-08-30T09:58:30.262Z,0.2
2022-08-30T10:00:36.339Z,0.2
2022-08-30T10:02:42.463Z,0.1
2022-08-30T10:04:48.551Z,0.1
2022-08-30T10:06:54.650Z,0.2
2022-08-30T10:09:03.531Z,0.2
2022-08-30T10:11:09.615Z,0.2
2022-08-30T10:13:15.978Z,0.2
2022-08-30T10:17:27.858Z,0.2
2022-08-30T10:19:33.935Z,0.1
2022-08-30T10:21:40.060Z,0.1
2022-08-30T10:23:48.892Z,0.1
2022-08-30T10:25:54.963Z,0.1
2022-08-30T10:28:01.021Z,0.1
2022-08-30T10:29:05.448Z,0.1
2022-08-30T10:33:19.182Z,0.2
2022-08-30T10:35:25.115Z,0.2
2022-08-30T10:37:33.883Z,0.1
2022-08-30T10:39:39.845Z,0.2
2022-08-30T10:41:45.906Z,0.1
2022-08-30T10:45:57.995Z,0.1
2022-08-30T10:48:03.955Z,0.1
2022-08-30T10:50:09.933Z,0.1
2022-08-30T10:52:18.533Z,0.1
2022-08-30T10:54:24.439Z,0.1
2022-08-30T10:56:30.350Z,0.1
2022-08-30T10:58:36.378Z,0.1
2022-08-30T11:02:48.217Z,0.1
2022-08-30T11:04:54.106Z,0.1
2022-08-30T11:15:26.358Z,0.1
2022-08-30T11:17:32.274Z,0.1
2022-08-30T11:19:38.142Z,0.1
2022-08-30T11:21:46.731Z,0.1
2022-08-30T11:25:58.522Z,0.1
2022-08-30T11:28:23.894Z,0.1
2022-08-30T11:30:29.733Z,0.1
2022-08-30T11:32:35.597Z,0.1
2022-08-30T11:34:44.119Z,0.1
2022-08-30T11:36:49.988Z,0.1
2022-08-30T11:38:56.805Z,0.1
2022-08-30T11:41:01.707Z,0
2022-08-30T11:43:07.587Z,0.1
2022-08-30T11:45:13.461Z,0.1
2022-08-30T11:47:19.324Z,0
2022-08-30T11:49:27.900Z,0
2022-08-30T11:51:33.783Z,0.1
2022-08-30T11:55:45.518Z,0.1
2022-08-30T11:57:51.360Z,0.1
2022-08-30T11:59:57.219Z,0.1
2022-08-30T12:02:03.157Z,0.1
2022-08-30T12:04:15.085Z,0.1
2022-08-30T12:06:17.519Z,0.1
2022-08-30T12:08:24.243Z,0
2022-08-30T12:10:29.277Z,0.1
2022-08-30T12:12:35.142Z,0.1
2022-08-30T12:14:41.350Z,0.1
2022-08-30T12:16:46.970Z,0
2022-08-30T12:18:55.435Z,0
2022-08-30T12:21:01.341Z,0.1
2022-08-30T12:23:07.226Z,0
2022-08-30T12:28:23.181Z,0.1
2022-08-30T12:30:29.069Z,0
2022-08-30T12:32:37.653Z,0
2022-08-30T12:34:43.518Z,0.1
2022-08-30T12:36:49.362Z,0
2022-08-30T12:38:55.250Z,0.1
2022-08-30T12:41:01.092Z,0.1
2022-08-30T12:43:07.867Z,0
2022-08-30T12:45:12.864Z,0.1
2022-08-30T12:47:21.432Z,0.1
2022-08-30T12:49:27.269Z,0.1
2022-08-30T12:55:44.866Z,0.1
2022-08-30T13:00:01.999Z,0.1
2022-08-30T13:02:05.311Z,0.1
2022-08-30T13:04:11.079Z,0.1
2022-08-30T13:08:22.796Z,0.1
2022-08-30T13:10:28.684Z,0.1
2022-08-30T13:12:34.526Z,0
2022-08-30T13:16:49.342Z,0.1
2022-08-30T13:18:54.849Z,0.1
2022-08-30T13:21:00.713Z,0
2022-08-30T13:22:05.042Z,0.1
2022-08-30T13:24:10.883Z,0.1
2022-08-30T13:26:20.408Z,0.1
2022-08-30T13:30:31.203Z,0.1
2022-08-30T13:32:38.791Z,0.1
2022-08-30T13:34:42.932Z,0.1
2022-08-30T13:36:48.788Z,0.1
2022-08-30T13:38:54.643Z,0.1
2022-08-30T13:41:00.547Z,0.1
2022-08-30T13:43:06.466Z,0.1
2022-08-30T13:45:42.151Z,0.1
2022-08-30T13:47:35.534Z,0.1
2022-08-30T13:49:44.776Z,0.1
2022-08-30T13:53:54.336Z,0.1
2022-08-30T13:55:44.470Z,0.1
2022-08-30T13:59:59.040Z,0.1
2022-08-30T14:02:08.410Z,0
2022-08-30T14:04:13.945Z,0.1
2022-08-30T14:06:32.730Z,0.1
2022-08-30T14:08:50.532Z,0.1
2022-08-30T14:10:32.138Z,0.1
2022-08-30T14:12:53.391Z,0.1
2022-08-30T14:14:43.962Z,0.1
2022-08-30T14:16:48.997Z,0.1
2022-08-30T14:19:59.185Z,0.1
2022-08-30T14:22:05.099Z,0.1
2022-08-30T14:24:11.130Z,0.1
2022-08-30T14:26:17.205Z,0.1
2022-08-30T14:28:25.646Z,0.2
2022-08-30T14:30:31.564Z,0.1
2022-08-30T14:32:37.603Z,0.1
2022-08-30T14:34:43.524Z,0.2
2022-08-30T14:36:49.523Z,0.1
2022-08-30T14:38:55.438Z,0.2
2022-08-30T14:41:01.380Z,0.1
2022-08-30T14:43:09.965Z,0.1
2022-08-30T14:45:15.895Z,0.1
2022-08-30T14:47:24.560Z,0.1
2022-08-30T14:49:27.721Z,0.2
2022-08-30T14:51:33.705Z,0.1
2022-08-30T14:53:39.699Z,0.2
2022-08-30T14:55:45.677Z,0.1
2022-08-30T14:57:54.259Z,0.1
2022-08-30T15:02:06.165Z,0.2
2022-08-30T15:04:12.275Z,0.1
2022-08-30T15:06:18.245Z,0.1
2022-08-30T15:08:24.402Z,0.1
2022-08-30T15:10:30.337Z,0.1
2022-08-30T15:12:39.104Z,0.1
2022-08-30T15:14:45.139Z,0.2
2022-08-30T15:19:16.731Z,0.2
2022-08-30T15:23:28.846Z,0.2
2022-08-30T15:25:37.711Z,0.1
2022-08-30T15:27:43.813Z,0.2
2022-08-30T15:29:49.879Z,0.2
2022-08-30T15:31:55.983Z,0.2
2022-08-30T15:38:14.201Z,0.2
2022-08-30T15:42:29.199Z,0.1
2022-08-30T15:44:35.310Z,0.2
2022-08-30T15:46:41.489Z,0.1
2022-08-30T15:48:47.521Z,0.1
2022-08-30T15:50:53.614Z,0.1
2022-08-30T15:52:59.839Z,0.2
2022-08-30T15:55:08.646Z,0.2
2022-08-30T15:57:14.752Z,0.1
2022-08-30T15:59:20.865Z,0.2
2022-08-30T16:01:30.763Z,0.2
2022-08-30T16:03:33.073Z,0.2
2022-08-30T16:07:45.297Z,0.2
2022-08-30T16:09:54.191Z,0.2
2022-08-30T16:12:00.326Z,0.2
2022-08-30T16:14:06.420Z,0.2
2022-08-30T16:15:10.880Z,0.2
2022-08-30T16:17:17.010Z,0.2
2022-08-30T16:19:23.136Z,0.2
2022-08-30T16:21:29.255Z,0.2
2022-08-30T16:23:38.167Z,0.2
2022-08-30T16:25:44.319Z,0.2
2022-08-30T16:27:50.444Z,0.1
2022-08-30T16:29:56.578Z,0.2
2022-08-30T16:32:02.732Z,0.2
2022-08-30T16:36:16.551Z,0.2
2022-08-30T16:38:26.437Z,0.1
2022-08-30T16:40:31.634Z,0.1
2022-08-30T16:42:38.078Z,0.2
2022-08-30T16:44:43.940Z,0.1
2022-08-30T16:46:53.238Z,0.2
2022-08-30T16:51:02.403Z,0.2
2022-08-30T16:53:11.404Z,0.2
2022-08-30T16:55:17.509Z,0.1
2022-08-30T16:57:23.893Z,0.2
2022-08-30T17:05:48.381Z,0.1
2022-08-30T17:07:57.312Z,0.2
2022-08-30T17:12:09.659Z,0.1
2022-08-30T17:13:14.111Z,0.2
2022-08-30T17:15:20.299Z,0.2
2022-08-30T17:17:26.594Z,0.2
2022-08-30T17:19:35.677Z,0.1
2022-08-30T17:23:47.833Z,0.1
2022-08-30T17:25:54.021Z,0.1
2022-08-30T17:28:00.224Z,0.1
2022-08-30T17:30:06.391Z,0.2
2022-08-30T17:32:12.581Z,0.2
2022-08-30T17:34:18.781Z,0.2
2022-08-30T17:36:27.819Z,0.2
2022-08-30T17:38:33.952Z,0.2
2022-08-30T17:40:40.308Z,0.2
2022-08-30T17:42:46.350Z,0.2
2022-08-30T17:44:52.565Z,0.2
2022-08-30T17:46:59.540Z,0.2
2022-08-30T17:49:04.949Z,0.2
2022-08-30T17:51:13.955Z,0.2
2022-08-30T17:59:38.776Z,0.2
2022-08-30T18:01:45.057Z,0.1
2022-08-30T18:03:54.558Z,0.3
2022-08-30T18:08:06.500Z,0.1
2022-08-30T18:10:13.407Z,0.2
2022-08-30T18:11:17.124Z,0.2
2022-08-30T18:15:29.596Z,0.2
2022-08-30T18:17:35.841Z,0.3
2022-08-30T18:19:45.917Z,0.2
2022-08-30T18:23:57.218Z,0.3
2022-08-30T18:26:03.460Z,0.3
2022-08-30T18:28:09.671Z,0.2
2022-08-30T18:30:15.919Z,0.2
2022-08-30T18:32:22.143Z,0.2
2022-08-30T18:34:31.154Z,0.3
2022-08-30T18:36:37.554Z,0.3
2022-08-30T18:40:49.886Z,0.2
2022-08-30T18:42:56.103Z,0.3
2022-08-30T18:47:08.582Z,0.4
2022-08-30T18:53:30.110Z,0.3
2022-08-30T18:55:36.371Z,0.2
2022-08-30T18:57:42.755Z,0.3
2022-08-30T18:59:48.855Z,0.3
2022-08-30T19:01:55.137Z,0.3
2022-08-30T19:04:04.808Z,0.4
2022-08-30T19:06:10.335Z,0.3
2022-08-30T19:08:17.658Z,0.3
2022-08-30T19:10:36.687Z,0.3
2022-08-30T19:16:58.947Z,0.3
2022-08-30T19:19:04.358Z,0.2
2022-08-30T19:21:13.650Z,0.3
2022-08-30T19:23:16.816Z,0.2
2022-08-30T19:27:37.564Z,0.3
2022-08-30T19:29:35.576Z,0.2
2022-08-30T19:35:57.265Z,0.2
2022-08-30T19:42:15.823Z,0.2
2022-08-30T19:48:42.205Z,0.3
2022-08-30T19:50:43.624Z,0.3
2022-08-30T19:54:56.144Z,0.4
2022-08-30T20:01:32.708Z,0.4
2022-08-30T20:03:23.990Z,0.2
2022-08-30T20:05:30.277Z,0.3
2022-08-30T20:06:34.770Z,0.3
2022-08-30T20:10:47.295Z,0.2
2022-08-30T20:12:53.557Z,0.4
2022-08-30T20:17:11.588Z,0.4
2022-08-30T20:19:15.197Z,0.3
2022-08-30T20:21:21.492Z,0.3
2022-08-30T20:25:33.988Z,0.4
2022-08-30T20:27:40.281Z,0.4
2022-08-30T20:29:49.320Z,0.3
2022-08-30T20:31:55.582Z,0.4
2022-08-30T20:34:01.861Z,0.4
2022-08-30T20:36:08.129Z,0.5
2022-08-30T20:38:14.747Z,0.3
2022-08-30T20:40:20.868Z,0.4
2022-08-30T20:42:27.024Z,0.3
2022-08-30T20:44:36.047Z,0.4
2022-08-30T20:46:42.390Z,0.4
2022-08-30T20:48:48.606Z,0.4
2022-08-30T20:50:54.876Z,0.4
2022-08-30T20:53:01.192Z,0.4
2022-08-30T20:55:07.462Z,0.5
2022-08-30T20:57:13.766Z,0.4
2022-08-30T20:59:22.893Z,0.5
2022-08-30T21:03:35.485Z,0.3
2022-08-30T21:06:46.419Z,0.5
2022-08-30T21:08:52.664Z,0.4
2022-08-30T21:10:59.129Z,0.5
2022-08-30T21:13:08.046Z,0.5
2022-08-30T21:15:36.406Z,0.4
2022-08-30T21:17:20.677Z,0.4
2022-08-30T21:25:45.820Z,0.4
2022-08-30T21:27:54.900Z,0.6
2022-08-30T21:32:07.562Z,0.5
2022-08-30T21:34:17.516Z,0.5
2022-08-30T21:36:20.224Z,0.5
2022-08-30T21:38:26.524Z,0.4
2022-08-30T21:40:32.853Z,0.5
2022-08-30T21:42:41.986Z,0.5
2022-08-30T21:44:48.265Z,0.4
2022-08-30T21:46:54.526Z,0.4
2022-08-30T21:49:00.859Z,0.5
2022-08-30T21:51:07.220Z,0.4
2022-08-30T21:53:15.092Z,0.5
2022-08-30T21:55:19.820Z,0.4
2022-08-30T21:57:28.945Z,0.4
2022-08-30T21:59:35.248Z,0.4
2022-08-30T22:01:41.711Z,0.5
2022-08-30T22:09:05.350Z,0.5
2022-08-30T22:11:14.490Z,0.4
2022-08-30T22:13:20.869Z,0.4
2022-08-30T22:15:27.174Z,0.4
2022-08-30T22:17:33.573Z,0.6
2022-08-30T22:19:39.875Z,0.5
2022-08-30T22:23:52.648Z,0.5
2022-08-30T22:26:01.885Z,0.4
2022-08-30T22:28:08.194Z,0.5
2022-08-30T22:30:14.599Z,0.5
2022-08-30T22:32:20.953Z,0.4
2022-08-30T22:34:27.381Z,0.5
2022-08-30T22:36:33.746Z,0.5
2022-08-30T22:38:40.140Z,0.4
2022-08-30T22:42:57.298Z,0.5
2022-08-30T22:45:03.722Z,0.5
2022-08-30T22:47:10.102Z,0.5
2022-08-30T22:49:16.503Z,0.5
2022-08-30T22:51:22.898Z,0.5
2022-08-30T22:53:29.278Z,0.4
2022-08-30T22:55:38.466Z,0.4
2022-08-30T22:57:44.841Z,0.6
2022-08-30T22:59:51.227Z,0.6
2022-08-30T23:02:17.352Z,0.3
2022-08-30T23:04:23.683Z,0.5
2022-08-30T23:08:39.215Z,0.4
2022-08-30T23:10:45.627Z,0.5
2022-08-30T23:12:52.017Z,0.6
2022-08-30T23:14:58.587Z,0.5
2022-08-30T23:17:04.836Z,0.4
2022-08-30T23:19:11.212Z,0.4
2022-08-30T23:21:17.611Z,0.3
2022-08-30T23:23:26.875Z,0.4
2022-08-30T23:27:39.670Z,0.5
2022-08-30T23:29:46.064Z,0.5
2022-08-30T23:31:52.538Z,0.3
2022-08-30T23:33:58.898Z,0.6
2022-08-30T23:36:05.246Z,0.5
2022-08-30T23:38:14.432Z,0.5
2022-08-30T23:40:20.860Z,0.4
2022-08-30T23:42:27.208Z,0.5
2022-08-30T23:44:33.605Z,0.4
2022-08-30T23:46:40.038Z,0.5
2022-08-30T23:48:50.612Z,0.6
2022-08-30T23:50:52.816Z,0.5
2022-08-30T23:55:08.421Z,0.3
2022-08-30T23:57:14.829Z,0.4
2022-08-30T23:58:19.459Z,0.4
